Time;durP1;ratioP1;P1;durP2;ratioP2;P2;SDS_P1;SDS_P2;PMS_P1;PMS_P2;Temp;Humidity;BMP_temperature;BMP_pressure;BME280_temperature;BME280_humidity;BME280_pressure;Samples;Min_cycle;Max_cycle;Signal;HPM_P1;HPM_P2
2022/04/26 03:36:25;;;;;;;4.20;2.40;;;;;;;18.13;47.59;101804.59;5041217;28;20641;-42
2022/04/26 03:38:52;;;;;;;3.97;2.40;;;;;;;18.14;47.46;101813.50;5042263;28;20086;-42
2022/04/26 03:41:19;;;;;;;3.55;2.22;;;;;;;18.13;47.44;101815.34;5041482;28;20124;-43
2022/04/26 03:43:45;;;;;;;4.57;2.40;;;;;;;18.13;47.52;101814.44;5044055;28;20051;-44
2022/04/26 03:46:12;;;;;;;3.70;2.17;;;;;;;18.12;47.47;101816.28;5045377;28;20051;-44
2022/04/26 03:48:38;;;;;;;4.18;2.63;;;;;;;18.13;47.55;101822.50;5048963;28;20045;-44
2022/04/26 03:51:05;;;;;;;4.03;2.20;;;;;;;18.13;47.55;101819.81;5043616;28;20060;-46
2022/04/26 03:53:33;;;;;;;4.28;2.30;;;;;;;18.12;47.60;101820.81;5047812;28;20104;-44
2022/04/26 03:55:59;;;;;;;4.57;2.58;;;;;;;18.11;47.49;101814.59;5048314;28;20440;-46
2022/04/26 03:58:26;;;;;;;4.95;2.30;;;;;;;18.11;47.64;101821.78;5049167;28;20053;-45
2022/04/26 04:00:53;;;;;;;5.38;2.40;;;;;;;18.12;47.49;101823.50;5029832;28;20055;-43
2022/04/26 04:03:20;;;;;;;5.82;2.30;;;;;;;18.11;47.51;101822.66;5044148;28;20048;-43
2022/04/26 04:05:46;;;;;;;5.45;2.40;;;;;;;18.11;48.05;101821.78;5043605;28;20044;-46
2022/04/26 04:08:13;;;;;;;5.50;2.65;;;;;;;18.10;47.51;101814.75;5044863;28;20037;-43
2022/04/26 04:10:40;;;;;;;5.00;2.60;;;;;;;18.10;47.69;101810.22;5043687;28;20136;-42
2022/04/26 04:13:06;;;;;;;6.85;2.70;;;;;;;18.09;47.29;101808.53;5045353;28;20365;-44
2022/04/26 04:15:33;;;;;;;7.18;2.75;;;;;;;18.09;47.59;101813.88;5041494;28;20059;-44
2022/04/26 04:17:59;;;;;;;7.85;2.65;;;;;;;18.08;47.78;101812.16;5041206;28;20045;-44
2022/04/26 04:20:26;;;;;;;7.35;3.00;;;;;;;18.08;47.31;101819.38;5042617;28;20059;-43
2022/04/26 04:22:55;;;;;;;6.53;2.83;;;;;;;18.08;47.80;101824.72;5047879;28;20471;-43
2022/04/26 04:25:22;;;;;;;7.03;3.03;;;;;;;18.07;47.10;101826.56;5044869;28;20045;-43
2022/04/26 04:27:49;;;;;;;7.35;3.17;;;;;;;18.07;47.60;101826.56;5042354;28;20345;-43
2022/04/26 04:30:15;;;;;;;8.43;2.63;;;;;;;18.07;47.16;101817.66;5048873;28;20136;-44
2022/04/26 04:32:42;;;;;;;11.45;2.97;;;;;;;18.05;47.05;101828.53;5046889;28;20195;-43
2022/04/26 04:35:09;;;;;;;7.50;3.33;;;;;;;18.06;47.12;101832.91;5049251;28;20397;-43
2022/04/26 04:37:35;;;;;;;9.32;2.80;;;;;;;18.04;47.15;101839.38;5048808;28;20076;-43
2022/04/26 04:40:02;;;;;;;7.32;2.83;;;;;;;18.04;46.94;101837.56;5048813;28;20297;-44
2022/04/26 04:42:29;;;;;;;8.13;3.08;;;;;;;18.04;47.28;101847.44;5052506;28;20060;-43
2022/04/26 04:44:55;;;;;;;7.72;3.67;;;;;;;18.02;46.88;101849.41;5050895;28;20052;-45
2022/04/26 04:47:22;;;;;;;9.25;3.70;;;;;;;18.01;47.26;101853.94;5049397;28;20120;-44
2022/04/26 04:49:48;;;;;;;7.18;3.40;;;;;;;18.00;46.94;101850.38;5043541;28;20050;-47
2022/04/26 04:52:15;;;;;;;7.25;3.47;;;;;;;18.01;46.93;101853.94;5037746;28;20049;-45
2022/04/26 04:54:42;;;;;;;7.68;3.55;;;;;;;18.02;46.86;101861.00;5042320;28;20049;-44
2022/04/26 04:57:08;;;;;;;8.30;3.95;;;;;;;18.01;46.33;101867.34;5041727;28;20075;-43
2022/04/26 04:59:35;;;;;;;9.38;3.70;;;;;;;18.01;47.11;101870.03;5043154;28;20396;-43
2022/04/26 05:02:02;;;;;;;6.93;3.95;;;;;;;17.99;46.58;101875.50;5043048;28;20072;-44
2022/04/26 05:04:29;;;;;;;7.30;3.75;;;;;;;17.99;46.92;101871.97;5042830;28;20060;-44
2022/04/26 05:06:55;;;;;;;9.38;4.47;;;;;;;17.98;46.99;101884.53;5042902;28;20045;-42
2022/04/26 05:09:22;;;;;;;7.40;3.78;;;;;;;17.97;46.75;101874.78;5042102;28;20044;-44
2022/04/26 05:11:49;;;;;;;6.65;3.78;;;;;;;17.98;46.94;101883.69;5048824;28;20468;-44
2022/04/26 05:14:15;;;;;;;8.18;3.95;;;;;;;17.97;46.79;101885.53;5050399;28;20052;-44
2022/04/26 05:16:42;;;;;;;11.10;3.80;;;;;;;17.97;46.94;101898.09;5052988;28;20072;-44
2022/04/26 05:19:08;;;;;;;9.95;4.25;;;;;;;17.96;46.73;101899.88;5052071;28;20064;-44
2022/04/26 05:21:35;;;;;;;8.65;4.50;;;;;;;17.95;46.67;101900.88;5050884;28;20437;-44
2022/04/26 05:26:47;;;;;;;11.50;4.68;;;;;;;17.95;46.83;101898.19;5041263;28;20048;-44
2022/04/26 05:29:14;;;;;;;7.43;4.43;;;;;;;17.96;46.85;101907.09;5042683;28;20052;-44
2022/04/26 05:31:40;;;;;;;8.68;4.63;;;;;;;17.94;46.73;101896.50;5044119;28;20399;-42
2022/04/26 05:34:07;;;;;;;8.43;4.57;;;;;;;17.94;46.82;101909.06;5046801;28;20107;-43
2022/04/26 05:36:34;;;;;;;7.95;4.15;;;;;;;17.93;46.65;101910.91;5049342;28;20055;-43
2022/04/26 05:39:01;;;;;;;11.15;4.53;;;;;;;17.93;46.18;101915.38;5045146;28;20060;-44
2022/04/26 05:41:28;;;;;;;12.35;4.65;;;;;;;17.95;46.49;101922.34;5046876;28;20290;-41
2022/04/26 05:43:54;;;;;;;8.20;4.50;;;;;;;17.94;46.58;101915.28;5047728;28;20420;-43
2022/04/26 05:46:21;;;;;;;9.38;4.93;;;;;;;17.95;46.64;101925.00;5043304;28;20143;-43
2022/04/26 05:48:47;;;;;;;10.45;4.18;;;;;;;17.93;46.52;101923.44;5042628;28;20076;-42
2022/04/26 05:51:14;;;;;;;9.63;4.45;;;;;;;17.93;46.42;101928.78;5042957;28;20055;-43
2022/04/26 05:53:41;;;;;;;9.32;4.57;;;;;;;17.92;46.33;101919.03;5043658;28;20052;-44
2022/04/26 05:56:09;;;;;;;9.00;4.47;;;;;;;17.94;46.29;101930.53;5046209;28;20053;-43
2022/04/26 05:58:35;;;;;;;10.82;4.43;;;;;;;17.94;46.50;101933.19;5046560;28;20049;-42
2022/04/26 06:01:03;;;;;;;7.75;3.97;;;;;;;17.94;46.41;101930.53;5044189;28;20099;-42
2022/04/26 06:03:30;;;;;;;8.90;4.40;;;;;;;17.92;46.08;101936.00;5043031;28;20049;-44
2022/04/26 06:05:57;;;;;;;7.07;4.05;;;;;;;17.92;46.71;101936.00;5043704;28;20294;-43
2022/04/26 06:08:23;;;;;;;7.63;4.13;;;;;;;17.92;46.08;101935.13;5044819;28;20052;-44
2022/04/26 06:10:50;;;;;;;8.52;4.35;;;;;;;17.92;46.24;101941.34;5047775;28;20421;-43
2022/04/26 06:13:16;;;;;;;9.23;4.25;;;;;;;17.92;46.37;101932.47;5050899;28;20324;-43
2022/04/26 06:15:43;;;;;;;11.43;4.15;;;;;;;17.91;46.20;101936.97;5049103;28;20045;-42
2022/04/26 06:18:10;;;;;;;9.15;3.63;;;;;;;17.92;46.05;101943.19;5050458;28;20044;-43
2022/04/26 06:20:36;;;;;;;8.30;3.72;;;;;;;17.93;45.89;101939.53;5047026;28;20136;-44
2022/04/26 06:23:03;;;;;;;6.50;3.65;;;;;;;17.93;46.17;101940.41;5048846;28;20377;-43
2022/04/26 06:25:32;;;;;;;10.07;3.58;;;;;;;17.93;45.72;101948.44;5048281;28;20287;-44
2022/04/26 06:27:59;;;;;;;8.15;3.60;;;;;;;17.92;46.14;101946.72;5051159;28;20045;-43
2022/04/26 06:30:25;;;;;;;7.05;3.78;;;;;;;17.92;45.73;101949.41;5051139;28;20040;-44
2022/04/26 06:32:52;;;;;;;7.90;4.10;;;;;;;17.91;45.68;101949.53;5049531;28;20135;-44
2022/04/26 06:35:19;;;;;;;6.72;3.50;;;;;;;17.92;45.93;101943.19;5048719;28;20060;-44
2022/04/26 06:37:45;;;;;;;7.35;3.33;;;;;;;17.91;46.02;101949.53;5049819;28;20952;-43
2022/04/26 06:40:12;;;;;;;6.85;3.85;;;;;;;17.93;45.54;101960.97;5046513;28;20484;-42
2022/04/26 06:42:38;;;;;;;8.32;3.53;;;;;;;17.92;45.42;101964.66;5048933;28;20128;-43
2022/04/26 06:45:05;;;;;;;7.13;3.35;;;;;;;17.91;46.06;101957.59;5050364;28;20381;-44
2022/04/26 06:47:32;;;;;;;7.72;3.17;;;;;;;17.90;45.67;101959.41;5049958;28;20045;-47
2022/04/26 06:49:58;;;;;;;8.63;4.18;;;;;;;17.91;45.76;101976.34;5045800;28;20053;-43
2022/04/26 06:52:25;;;;;;;8.02;3.70;;;;;;;17.90;45.69;101972.84;5050115;28;20079;-43
2022/04/26 06:54:52;;;;;;;5.70;2.67;;;;;;;17.90;45.78;101974.66;5049144;28;20127;-43
2022/04/26 06:57:18;;;;;;;6.18;3.30;;;;;;;17.89;45.02;101973.81;5047795;28;20071;-44
2022/04/26 06:59:45;;;;;;;6.22;3.30;;;;;;;17.89;45.81;101978.31;5045971;28;20069;-45
2022/04/26 07:02:11;;;;;;;5.45;2.92;;;;;;;17.90;45.47;101985.41;5049587;28;20076;-43
2022/04/26 07:04:38;;;;;;;5.30;3.20;;;;;;;17.89;45.46;101983.66;5048085;28;20061;-44
2022/04/26 07:07:06;;;;;;;6.75;3.53;;;;;;;17.90;45.68;101986.25;5048895;28;20045;-43
2022/04/26 07:09:32;;;;;;;4.82;2.65;;;;;;;17.90;45.17;101990.75;5045941;28;20033;-46
2022/04/26 07:11:59;;;;;;;6.85;2.72;;;;;;;17.90;45.49;101993.44;5048265;28;20041;-43
2022/04/26 07:14:25;;;;;;;7.80;2.88;;;;;;;17.90;45.20;101993.44;5046568;28;20124;-44
2022/04/26 07:16:52;;;;;;;4.80;2.42;;;;;;;17.90;45.10;101994.28;5046257;28;20055;-46
2022/04/26 07:19:19;;;;;;;6.78;3.03;;;;;;;17.91;45.43;101997.81;5046029;28;20055;-42
2022/04/26 07:21:47;;;;;;;5.07;2.45;;;;;;;17.91;45.28;102000.50;5050561;28;20040;-43
2022/04/26 07:24:33;;;;;;;9.77;2.85;;;;;;;17.91;45.18;101995.97;5051154;28;20048;-43
2022/04/26 07:27:00;;;;;;;5.72;2.70;;;;;;;17.92;45.26;101995.00;5051936;28;20053;-45
2022/04/26 07:29:27;;;;;;;6.90;2.70;;;;;;;17.94;45.17;101997.56;5049433;28;20480;-43
2022/04/26 07:31:53;;;;;;;5.93;2.65;;;;;;;17.96;45.15;101995.59;5053635;28;20041;-42
2022/04/26 07:34:26;;;;;;;5.97;2.47;;;;;;;17.96;45.39;102001.81;5053165;28;20428;-45
2022/04/26 07:36:54;;;;;;;5.15;2.40;;;;;;;17.97;45.35;102006.22;5053333;28;20167;-44
2022/04/26 07:39:21;;;;;;;6.07;2.60;;;;;;;17.99;45.35;102003.41;5051007;28;20329;-43
2022/04/26 07:41:48;;;;;;;4.10;2.35;;;;;;;18.00;45.12;102005.09;5052753;28;20100;-43
2022/04/26 07:44:15;;;;;;;3.42;2.10;;;;;;;18.01;44.74;102009.53;5053536;28;20051;-44
2022/04/26 07:46:44;;;;;;;4.18;2.20;;;;;;;18.02;45.12;102011.22;5054446;28;20057;-43
2022/04/26 07:49:14;;;;;;;6.70;2.88;;;;;;;18.03;45.17;102006.69;5047822;28;20175;-43
2022/04/26 07:51:42;;;;;;;6.75;2.30;;;;;;;18.04;44.92;102011.06;5048977;28;20139;-43
2022/04/26 07:54:09;;;;;;;4.70;2.33;;;;;;;18.05;44.98;102002.03;5049966;28;20055;-43
2022/04/26 07:56:36;;;;;;;5.03;2.22;;;;;;;18.06;44.75;102017.19;5048758;28;20041;-44
2022/04/26 07:59:04;;;;;;;4.70;1.90;;;;;;;18.06;44.43;102015.34;5051237;28;20120;-44
2022/04/26 08:01:31;;;;;;;4.15;2.15;;;;;;;18.06;44.36;102028.78;5050741;28;20507;-43
2022/04/26 08:03:58;;;;;;;5.20;2.13;;;;;;;18.07;44.63;102026.94;5051779;28;20040;-42
2022/04/26 08:06:25;;;;;;;7.78;2.50;;;;;;;18.06;44.84;102018.03;5050655;28;20053;-43
2022/04/26 08:08:54;;;;;;;4.55;2.17;;;;;;;18.09;44.55;102041.06;5053117;28;20140;-42
2022/04/26 08:11:21;;;;;;;5.28;2.60;;;;;;;18.08;44.40;102032.16;5037332;28;20033;-42
2022/04/26 08:13:49;;;;;;;6.43;2.88;;;;;;;18.09;44.48;102030.31;5052581;28;20379;-47
2022/04/26 08:16:17;;;;;;;5.35;2.15;;;;;;;18.10;44.76;102029.38;5053261;28;20376;-44
2022/04/26 08:18:44;;;;;;;4.18;2.28;;;;;;;18.10;44.37;102032.06;5050074;28;20057;-44
2022/04/26 08:21:14;;;;;;;3.65;2.22;;;;;;;18.10;44.27;102038.28;5049849;28;20087;-43
2022/04/26 08:29:14;;;;;;;3.53;2.05;;;;;;;18.12;44.42;102038.13;5050549;28;20053;-41
2022/04/26 08:31:42;;;;;;;5.53;2.40;;;;;;;18.12;44.34;102036.31;5050561;28;20056;-43
2022/04/26 08:34:09;;;;;;;2.97;1.83;;;;;;;18.12;44.20;102044.34;5052383;28;20056;-45
2022/04/26 08:36:35;;;;;;;6.85;2.45;;;;;;;18.13;44.23;102046.09;5053451;28;20041;-44
2022/04/26 08:39:02;;;;;;;3.83;2.10;;;;;;;18.14;43.82;102061.19;5048293;28;20386;-43
2022/04/26 08:41:29;;;;;;;2.55;1.88;;;;;;;18.16;44.13;102048.50;5049491;28;20061;-45
2022/04/26 08:43:57;;;;;;;3.90;1.70;;;;;;;18.16;44.46;102045.81;5053575;28;20072;-46
2022/04/26 08:50:59;;;;;;;2.97;1.83;;;;;;;18.17;44.09;102043.97;5049293;28;20128;-44
2022/04/26 08:52:03;;;;;;;5.68;2.47;;;;;;;18.18;44.17;102043.88;5052393;28;20092;-40
2022/04/26 08:54:30;;;;;;;4.25;2.15;;;;;;;18.19;44.32;102053.63;5048581;28;20092;-41
2022/04/26 08:56:58;;;;;;;3.40;2.00;;;;;;;18.20;43.94;102067.88;5051019;28;20639;-40
2022/04/26 08:59:25;;;;;;;3.28;1.98;;;;;;;18.22;44.40;102071.31;5053471;28;20171;-42
2022/04/26 09:02:21;;;;;;;4.55;2.03;;;;;;;18.21;44.13;102075.81;5050650;28;20056;-40
2022/04/26 09:04:53;;;;;;;4.35;2.03;;;;;;;18.23;44.76;102079.22;5050120;28;20053;-41
2022/04/26 09:07:33;;;;;;;4.30;1.75;;;;;;;18.25;44.90;102081.75;5049936;28;20053;-42
2022/04/26 09:10:04;;;;;;;3.10;1.98;;;;;;;18.28;44.89;102075.31;5050678;28;20045;-42
2022/04/26 09:12:31;;;;;;;4.03;2.05;;;;;;;18.30;44.65;102081.41;5049685;28;20136;-41
2022/04/26 09:15:13;;;;;;;3.80;2.20;;;;;;;18.32;44.65;102084.81;5052289;28;20123;-42
2022/04/26 09:17:41;;;;;;;3.15;2.10;;;;;;;18.33;44.56;102090.06;5050777;28;20045;-46
2022/04/26 09:20:09;;;;;;;4.22;1.80;;;;;;;18.36;44.49;102095.16;5052561;28;20048;-42
2022/04/26 09:22:38;;;;;;;3.08;1.90;;;;;;;18.39;44.30;102088.72;5051364;28;20148;-41
2022/04/26 09:25:08;;;;;;;3.50;1.90;;;;;;;18.41;44.67;102098.34;5051262;28;20053;-41
2022/04/26 09:27:37;;;;;;;6.53;2.30;;;;;;;18.43;44.30;102090.16;5045205;28;20526;-42
2022/04/26 09:30:11;;;;;;;3.72;1.80;;;;;;;18.47;44.15;102089.78;5049102;28;20051;-42
2022/04/26 09:32:49;;;;;;;5.90;2.30;;;;;;;18.52;44.72;102088.53;5048826;28;20124;-43
2022/04/26 09:35:19;;;;;;;4.00;1.85;;;;;;;18.56;44.33;102090.84;5048722;28;20075;-41
2022/04/26 09:37:46;;;;;;;4.55;2.20;;;;;;;18.63;43.92;102083.16;5049272;28;20051;-43
2022/04/26 09:40:20;;;;;;;6.78;2.00;;;;;;;18.69;44.52;102106.78;5048165;28;20320;-43
2022/04/26 09:42:50;;;;;;;12.60;2.25;;;;;;;18.74;44.59;102100.13;5048813;28;20480;-42
2022/04/26 09:45:17;;;;;;;12.85;3.17;;;;;;;18.80;45.92;102103.25;5046031;28;20053;-42
2022/04/26 09:47:45;;;;;;;14.90;2.67;;;;;;;18.87;47.17;102101.78;5048964;28;20041;-42
2022/04/26 09:50:16;;;;;;;8.65;2.60;;;;;;;18.94;49.27;102105.66;5047784;28;20087;-42
2022/04/26 09:52:43;;;;;;;14.07;3.35;;;;;;;18.99;50.33;102104.28;5050763;28;20072;-43
2022/04/26 09:55:11;;;;;;;13.35;3.20;;;;;;;19.07;50.29;102106.31;5047923;28;20132;-43
2022/04/26 09:57:38;;;;;;;14.20;4.25;;;;;;;19.12;50.62;102103.25;5048303;28;20068;-43
2022/04/26 10:00:11;;;;;;;18.77;4.85;;;;;;;19.17;51.13;102106.38;5049235;28;20184;-42
2022/04/26 10:02:46;;;;;;;19.05;5.65;;;;;;;19.23;50.66;102108.56;5050892;28;20119;-43
2022/04/26 10:05:20;;;;;;;29.67;7.53;;;;;;;19.27;50.24;102111.84;5049816;28;20079;-42
2022/04/26 10:07:49;;;;;;;18.20;7.13;;;;;;;19.31;50.74;102114.13;5051919;28;20107;-42
2022/04/26 10:10:19;;;;;;;16.40;6.75;;;;;;;19.36;49.98;102113.75;5050711;28;20056;-44
2022/04/26 10:13:31;;;;;;;18.60;6.93;;;;;;;19.39;49.56;102102.72;5051904;28;20348;-43
2022/04/26 10:15:35;;;;;;;23.45;7.53;;;;;;;19.45;49.29;102112.94;5049070;28;20381;-44
2022/04/26 10:18:24;;;;;;;16.20;6.97;;;;;;;19.46;48.94;102120.03;5050956;28;20075;-45
2022/04/26 10:20:51;;;;;;;12.82;7.03;;;;;;;19.49;49.41;102122.44;5050715;28;20124;-42
2022/04/26 10:23:17;;;;;;;18.60;7.00;;;;;;;19.52;49.17;102115.97;5050067;28;20049;-43
2022/04/26 10:26:23;;;;;;;16.75;6.55;;;;;;;19.54;48.56;102127.41;5048286;28;20080;-46
2022/04/26 10:28:53;;;;;;;14.43;6.35;;;;;;;19.58;48.73;102124.38;4967754;28;20339;-44
2022/04/26 10:31:47;;;;;;;16.50;5.90;;;;;;;19.60;48.44;102124.22;5035713;28;20131;-44
2022/04/26 10:34:23;;;;;;;16.73;5.35;;;;;;;19.63;47.73;102129.38;5049248;28;20063;-45
2022/04/26 10:36:54;;;;;;;13.45;5.15;;;;;;;19.64;47.35;102134.59;5050431;28;20143;-44
2022/04/26 10:39:33;;;;;;;13.57;5.25;;;;;;;19.65;47.58;102130.91;5050893;28;20041;-43
2022/04/26 10:42:03;;;;;;;10.00;4.72;;;;;;;19.68;47.62;102127.97;5050638;28;20080;-44
2022/04/26 10:44:32;;;;;;;11.43;5.07;;;;;;;19.69;46.85;102136.91;5048755;28;20128;-45
2022/04/26 10:47:02;;;;;;;12.98;4.63;;;;;;;19.70;47.66;102131.41;5042444;28;20037;-46
2022/04/26 10:49:43;;;;;;;8.57;4.30;;;;;;;19.71;47.01;102138.47;5043061;28;20041;-49
2022/04/26 10:52:13;;;;;;;7.32;4.13;;;;;;;19.75;46.74;102138.22;5048832;28;20088;-43
2022/04/26 10:54:46;;;;;;;7.50;3.97;;;;;;;19.75;46.92;102139.06;5050254;28;20048;-45
2022/04/26 10:57:17;;;;;;;7.75;4.00;;;;;;;19.75;46.85;102139.06;5050017;28;20689;-46
2022/04/26 10:59:46;;;;;;;8.77;3.83;;;;;;;19.77;47.15;102141.59;5050529;28;20391;-45
2022/04/26 11:02:15;;;;;;;7.38;3.75;;;;;;;19.79;46.96;102145.88;5049164;28;20148;-47
2022/04/26 11:04:42;;;;;;;8.38;3.60;;;;;;;19.80;46.27;102144.03;5046814;28;20055;-43
2022/04/26 11:07:17;;;;;;;9.05;3.80;;;;;;;19.80;46.44;102139.50;5047288;28;20127;-43
2022/04/26 11:09:53;;;;;;;6.25;3.22;;;;;;;19.83;45.84;102146.47;5050167;28;20152;-44
2022/04/26 11:12:27;;;;;;;8.18;3.53;;;;;;;19.82;45.85;102142.94;5048846;28;20040;-43
2022/04/26 11:14:59;;;;;;;5.07;2.88;;;;;;;19.85;45.49;102147.19;5049444;28;20049;-44
2022/04/26 11:17:27;;;;;;;5.63;2.63;;;;;;;19.86;45.74;102151.56;5049917;28;20460;-44
2022/04/26 11:19:59;;;;;;;5.53;3.00;;;;;;;19.87;44.83;102151.44;5048490;28;20057;-44
2022/04/26 11:22:27;;;;;;;5.95;3.08;;;;;;;19.87;44.93;102146.06;5046359;28;20475;-48
2022/04/26 11:28:00;;;;;;;5.28;2.90;;;;;;;19.93;44.74;102141.97;5050563;28;20379;-45
2022/04/26 11:30:31;;;;;;;5.10;2.50;;;;;;;19.94;44.83;102154.47;5049840;28;20048;-46
2022/04/26 11:33:06;;;;;;;4.82;2.78;;;;;;;19.96;44.64;102145.25;5050398;28;20072;-45
2022/04/26 11:35:34;;;;;;;5.45;2.33;;;;;;;19.97;45.06;102144.25;5049338;28;20103;-45
2022/04/26 11:38:16;;;;;;;5.95;2.58;;;;;;;19.98;44.39;102145.13;5050395;28;20379;-45
2022/04/26 11:40:55;;;;;;;5.30;2.55;;;;;;;20.01;43.90;102152.91;5050223;28;20052;-46
2022/04/26 11:43:26;;;;;;;5.35;2.30;;;;;;;20.02;44.22;102151.94;5049946;28;20072;-48
2022/04/26 11:45:55;;;;;;;6.53;2.42;;;;;;;20.02;43.91;102151.94;5050996;28;20475;-47
2022/04/26 11:48:24;;;;;;;6.00;2.40;;;;;;;20.05;43.98;102161.56;5050093;28;20387;-48
2022/04/26 11:50:53;;;;;;;4.25;2.05;;;;;;;20.05;43.89;102157.03;5049634;28;20041;-43
2022/04/26 11:53:23;;;;;;;4.53;2.08;;;;;;;20.07;44.58;102154.22;5049838;28;20091;-44
2022/04/26 11:56:03;;;;;;;4.38;2.17;;;;;;;20.08;44.25;102159.47;5048488;28;20052;-44
2022/04/26 11:58:29;;;;;;;3.17;2.15;;;;;;;20.10;44.26;102164.72;5047454;28;20054;-44
2022/04/26 12:00:56;;;;;;;7.82;2.53;;;;;;;20.11;43.73;102161.91;5047090;28;20716;-46
2022/04/26 12:03:25;;;;;;;4.53;2.30;;;;;;;20.13;43.80;102164.44;5048765;28;20045;-43
2022/04/26 12:06:07;;;;;;;7.55;2.53;;;;;;;20.14;43.93;102169.72;5049618;28;20127;-43
2022/04/26 12:08:36;;;;;;;5.65;2.28;;;;;;;20.17;44.20;102171.25;5053356;28;21074;-43
2022/04/26 12:11:29;;;;;;;3.78;2.25;;;;;;;20.17;43.30;102171.25;5053900;28;20072;-45
2022/04/26 12:14:11;;;;;;;2.05;1.80;;;;;;;20.18;43.05;102179.22;5053024;28;20171;-46
2022/04/26 12:16:47;;;;;;;4.35;2.22;;;;;;;20.20;43.09;102177.22;5049462;28;20049;-48
2022/04/26 12:19:14;;;;;;;5.25;2.20;;;;;;;20.20;43.02;102179.91;5051671;28;20080;-43
2022/04/26 12:21:52;;;;;;;4.57;2.08;;;;;;;20.20;42.60;102179.91;5050009;28;20036;-43
2022/04/26 12:24:22;;;;;;;3.63;1.77;;;;;;;20.22;42.93;102179.78;5050320;28;20079;-43
2022/04/26 12:26:51;;;;;;;4.10;2.17;;;;;;;20.24;43.00;102182.34;5049573;28;20123;-44
2022/04/26 12:29:18;;;;;;;4.75;2.20;;;;;;;20.26;42.77;102183.94;5052544;28;20045;-46
2022/04/26 12:31:47;;;;;;;5.95;2.15;;;;;;;20.25;42.56;102175.97;5052860;28;20475;-43
2022/04/26 12:34:30;;;;;;;2.10;1.77;;;;;;;20.26;43.04;102188.44;5049989;28;20064;-42
2022/04/26 12:37:10;;;;;;;3.58;1.60;;;;;;;20.26;42.09;102181.25;5048987;28;20040;-44
2022/04/26 12:39:44;;;;;;;5.95;2.00;;;;;;;20.26;42.46;102175.84;5052082;28;20048;-43
2022/04/26 12:42:14;;;;;;;3.42;2.22;;;;;;;20.27;42.26;102191.00;5031942;28;20123;-43
2022/04/26 12:44:56;;;;;;;5.18;1.98;;;;;;;20.27;42.76;102195.56;5046730;28;20135;-46
2022/04/26 12:50:31;;;;;;;4.03;1.58;;;;;;;20.28;41.58;102179.25;5052019;28;20056;-42
2022/04/26 12:53:01;;;;;;;3.60;1.98;;;;;;;20.28;41.69;102176.56;5051915;28;20118;-43
2022/04/26 12:55:29;;;;;;;3.75;2.10;;;;;;;20.29;41.68;102180.94;5051252;28;20408;-45
2022/04/26 12:57:58;;;;;;;5.63;1.73;;;;;;;20.30;41.77;102188.06;5053085;28;20149;-43
2022/04/26 13:00:26;;;;;;;3.00;1.73;;;;;;;20.32;42.13;102182.53;5049182;28;20451;-46
2022/04/26 13:02:56;;;;;;;2.47;1.90;;;;;;;20.31;41.38;102178.13;5050814;28;20084;-47
2022/04/26 13:05:42;;;;;;;2.40;1.73;;;;;;;20.31;41.52;102178.97;5054887;28;20040;-44
2022/04/26 13:08:09;;;;;;;3.83;2.03;;;;;;;20.33;41.46;102177.00;5052224;28;20064;-46
2022/04/26 13:10:36;;;;;;;3.80;1.98;;;;;;;20.34;41.39;102167.94;5050026;28;20124;-45
2022/04/26 13:13:04;;;;;;;3.55;1.95;;;;;;;20.33;41.61;102174.28;5051745;28;20136;-45
2022/04/26 13:15:30;;;;;;;3.85;1.80;;;;;;;20.34;41.06;102173.34;5050799;28;20357;-46
2022/04/26 13:17:59;;;;;;;3.03;1.73;;;;;;;20.35;41.43;102182.25;5048093;28;20426;-45
2022/04/26 13:20:26;;;;;;;4.20;2.20;;;;;;;20.35;41.14;102179.56;5050745;28;20438;-44
2022/04/26 13:22:53;;;;;;;4.68;1.95;;;;;;;20.35;40.88;102176.88;5050916;28;20448;-44
2022/04/26 13:25:19;;;;;;;5.75;2.03;;;;;;;20.35;40.86;102171.50;5051231;28;20136;-44
2022/04/26 13:27:47;;;;;;;3.10;1.83;;;;;;;20.35;40.94;102176.88;5052468;28;20328;-44
2022/04/26 13:30:15;;;;;;;4.75;1.75;;;;;;;20.34;41.58;102178.72;5050776;28;20387;-45
2022/04/26 13:32:42;;;;;;;4.30;1.80;;;;;;;20.34;40.99;102180.53;5052147;28;20127;-44
2022/04/26 13:35:09;;;;;;;3.08;1.48;;;;;;;20.34;41.24;102184.09;5052971;28;20387;-46
2022/04/26 13:37:36;;;;;;;2.80;1.52;;;;;;;20.34;40.94;102177.84;5050098;28;20062;-44
2022/04/26 13:40:03;;;;;;;3.03;2.00;;;;;;;20.34;40.93;102176.03;5051796;28;20123;-45
2022/04/26 13:42:31;;;;;;;2.60;1.77;;;;;;;20.32;40.70;102171.75;5051184;28;20110;-44
2022/04/26 13:44:59;;;;;;;3.63;1.60;;;;;;;20.33;41.07;102163.53;5050880;28;20048;-44
2022/04/26 13:47:25;;;;;;;2.15;1.73;;;;;;;20.33;40.59;102179.69;5052801;28;20091;-43
2022/04/26 13:49:52;;;;;;;2.83;1.73;;;;;;;20.33;41.25;102171.59;5051514;28;20140;-45
2022/04/26 13:52:20;;;;;;;4.30;1.77;;;;;;;20.33;40.64;102184.22;5048782;28;20470;-44
2022/04/26 13:54:47;;;;;;;3.03;1.50;;;;;;;20.32;41.01;102169.06;5048853;28;20053;-45
2022/04/26 13:57:14;;;;;;;2.83;1.63;;;;;;;20.32;40.97;102179.81;5049221;28;20049;-45
2022/04/26 13:59:42;;;;;;;2.28;1.50;;;;;;;20.31;40.75;102178.13;5044770;28;20184;-42
2022/04/26 14:02:11;;;;;;;1.98;1.60;;;;;;;20.32;40.72;102175.28;5049667;28;20067;-43
2022/04/26 14:04:37;;;;;;;2.72;1.92;;;;;;;20.32;40.72;102174.44;5046383;28;20320;-44
2022/04/26 14:07:04;;;;;;;2.25;1.80;;;;;;;20.31;40.51;102167.38;5051270;28;20698;-44
2022/04/26 14:09:31;;;;;;;4.28;1.70;;;;;;;20.32;40.86;102174.44;5052406;28;20037;-45
2022/04/26 14:11:58;;;;;;;2.35;1.60;;;;;;;20.30;40.45;102174.59;5050611;28;20057;-43
2022/04/26 14:22:45;;;;;;;2.20;1.60;;;;;;;20.28;40.37;102173.00;5045564;28;20049;-45
2022/04/26 14:25:13;;;;;;;5.10;1.98;;;;;;;20.27;41.06;102169.47;5043739;28;20100;-44
2022/04/26 14:27:42;;;;;;;5.45;1.95;;;;;;;20.28;41.20;102178.41;5048641;28;20047;-44
2022/04/26 14:30:11;;;;;;;7.78;1.80;;;;;;;20.27;40.71;102174.00;5042499;28;20045;-43
2022/04/26 14:32:57;;;;;;;28.27;14.93;;;;;;;20.27;40.38;102168.63;5046029;28;20059;-43
2022/04/26 14:35:25;;;;;;;20.55;11.57;;;;;;;20.26;39.50;102169.59;5046323;28;20415;-42
2022/04/26 14:37:53;;;;;;;13.10;6.78;;;;;;;20.24;39.61;102171.59;5046640;28;20095;-44
2022/04/26 14:40:20;;;;;;;13.07;6.55;;;;;;;20.25;40.14;102179.50;5048022;28;20044;-42
2022/04/26 14:42:48;;;;;;;13.95;6.10;;;;;;;20.26;40.07;102177.66;5047087;28;20128;-45
2022/04/26 14:45:15;;;;;;;11.13;5.72;;;;;;;20.26;39.83;102172.28;5046280;28;20053;-44
2022/04/26 14:47:41;;;;;;;11.35;6.38;;;;;;;20.26;39.98;102178.53;5045769;28;20132;-44
2022/04/26 14:50:09;;;;;;;13.48;6.38;;;;;;;20.26;40.15;102181.25;5045564;28;20124;-47
2022/04/26 14:52:37;;;;;;;12.18;5.80;;;;;;;20.26;40.04;102180.34;5049261;28;20091;-44
2022/04/26 14:55:07;;;;;;;12.45;5.50;;;;;;;20.25;40.27;102182.19;5046642;28;20128;-42
2022/04/26 14:57:35;;;;;;;9.52;5.30;;;;;;;20.26;40.31;102185.75;5047051;28;20051;-43
2022/04/26 15:00:06;;;;;;;9.13;4.93;;;;;;;20.26;39.65;102180.34;5047022;28;20076;-43
2022/04/26 15:02:40;;;;;;;10.10;5.10;;;;;;;20.27;39.45;102182.09;5049588;28;20041;-44
2022/04/26 15:05:08;;;;;;;8.40;4.80;;;;;;;20.27;39.43;102179.41;5046407;28;20377;-44
2022/04/26 15:10:21;;;;;;;9.20;4.35;;;;;;;20.27;39.88;102176.69;5046781;28;20048;-43
2022/04/26 15:18:20;;;;;;;10.30;4.97;;;;;;;20.26;39.64;102183.06;5043036;28;20097;-43
2022/04/26 15:20:51;;;;;;;10.68;3.92;;;;;;;20.27;40.28;102182.09;5047014;28;20393;-45
2022/04/26 15:23:20;;;;;;;6.93;4.00;;;;;;;20.25;39.65;102182.19;5047709;28;20054;-43
2022/04/26 15:25:55;;;;;;;8.00;4.03;;;;;;;20.27;39.81;102182.09;5046350;28;20059;-43
2022/04/26 15:28:23;;;;;;;11.80;4.18;;;;;;;20.25;39.58;102187.59;5045470;28;20068;-42
2022/04/26 15:30:50;;;;;;;8.60;4.30;;;;;;;20.26;40.05;102181.25;5048925;28;20045;-42
2022/04/26 15:33:18;;;;;;;8.00;3.85;;;;;;;20.26;39.86;102192.00;5046358;28;20068;-43
2022/04/26 15:35:45;;;;;;;7.38;3.85;;;;;;;20.25;39.79;102192.97;5047743;28;20061;-42
2022/04/26 15:38:12;;;;;;;11.68;3.83;;;;;;;20.27;39.85;102195.56;5044592;28;20156;-43
2022/04/26 15:40:40;;;;;;;5.47;3.60;;;;;;;20.26;39.93;102191.13;5048043;28;20756;-42
2022/04/26 15:43:07;;;;;;;6.53;3.53;;;;;;;20.25;39.79;102189.44;5048632;28;20079;-43